< < Back
Terminal Aerodrome Forecast


Current Version              Previous Versions:   1  2  3  4  5  6  7  8  9  

Terminal Aerodrome Forecast

048
FTUS44 KMOB 300526
TAFPNS
TAF
KPNS 300526Z 3006/0106 23004KT P6SM SCT040
     FM300900 25005KT P6SM VCSH SCT040 BKN150
     FM301300 27010KT P6SM VCTS SCT035CB BKN100 PROB30 3017/3022 3SM
      TSRA BKN035CB
     FM010300 21005KT P6SM SCT030=

Latest METAR

950
SAUS70 KWBC 010200 RRI
MTRPNS
METAR KPNS 010153Z 22004KT 10SM CLR 25/21 A3006 RMK AO2 SLP179
T02500211


USA.gov is the U.S. government's official web portal to all federal, state and local government web resources and services.